createdAt,value
2022-11-08T00:00:00.786Z,0.00
2022-11-08T00:01:00.996Z,0.00
2022-11-08T00:02:01.278Z,0.00
2022-11-08T00:03:01.402Z,0.00
2022-11-08T00:04:01.516Z,0.00
2022-11-08T00:05:01.677Z,0.00
2022-11-08T00:06:01.836Z,0.00
2022-11-08T00:07:02.011Z,0.00
2022-11-08T00:08:02.168Z,0.00
2022-11-08T00:09:02.345Z,0.00
2022-11-08T00:10:02.517Z,0.00
2022-11-08T00:11:02.676Z,0.00
2022-11-08T00:12:02.859Z,0.00
2022-11-08T00:13:03.015Z,0.00
2022-11-08T00:14:03.182Z,0.00
2022-11-08T00:15:03.339Z,0.00
2022-11-08T00:16:03.495Z,0.00
2022-11-08T00:17:03.676Z,0.00
2022-11-08T00:18:03.838Z,0.00
2022-11-08T00:19:03.997Z,0.00
2022-11-08T00:20:04.155Z,0.00
2022-11-08T00:21:04.327Z,0.00
2022-11-08T00:22:04.505Z,0.00
2022-11-08T00:23:04.666Z,0.00
2022-11-08T00:24:04.826Z,0.00
2022-11-08T00:25:04.987Z,0.00
2022-11-08T00:26:05.150Z,0.00
2022-11-08T00:27:05.327Z,0.00
2022-11-08T00:28:05.477Z,0.00
2022-11-08T00:29:05.676Z,0.00
2022-11-08T00:30:05.884Z,0.00
2022-11-08T00:31:06.005Z,0.00
2022-11-08T00:32:06.175Z,0.00
2022-11-08T00:33:06.344Z,0.00
2022-11-08T00:34:06.498Z,0.00
2022-11-08T00:35:06.706Z,0.00
2022-11-08T00:36:06.859Z,0.00
2022-11-08T00:37:07.035Z,0.00
2022-11-08T00:38:07.199Z,0.00
2022-11-08T00:39:07.388Z,0.00
2022-11-08T00:40:07.558Z,0.00
2022-11-08T00:41:07.722Z,0.00
2022-11-08T00:42:07.893Z,0.00
2022-11-08T00:43:08.061Z,0.00
2022-11-08T00:44:08.215Z,0.00
2022-11-08T00:45:08.365Z,0.00
2022-11-08T00:46:08.526Z,0.00
2022-11-08T00:47:08.706Z,0.00
2022-11-08T00:48:08.877Z,0.00
2022-11-08T00:49:09.037Z,0.00
2022-11-08T00:50:09.196Z,0.00
2022-11-08T00:51:09.360Z,0.00
2022-11-08T00:52:09.533Z,0.00
2022-11-08T00:53:09.696Z,0.00
2022-11-08T00:54:09.856Z,0.00
2022-11-08T00:55:10.029Z,0.00
2022-11-08T00:56:10.186Z,0.00
2022-11-08T00:57:10.366Z,0.00
2022-11-08T00:58:10.524Z,0.00
2022-11-08T00:59:10.716Z,0.00
2022-11-08T01:00:10.876Z,0.00
2022-11-08T01:01:11.179Z,0.00
2022-11-08T01:02:11.314Z,0.00
2022-11-08T01:03:11.426Z,0.00
2022-11-08T01:04:11.586Z,0.00
2022-11-08T01:05:11.747Z,0.00
2022-11-08T01:06:11.905Z,0.00
2022-11-08T01:07:12.088Z,0.00
2022-11-08T01:08:12.245Z,0.00
2022-11-08T01:09:12.405Z,0.00
2022-11-08T01:10:12.567Z,0.00
2022-11-08T01:11:12.726Z,0.00
2022-11-08T01:12:12.896Z,0.00
2022-11-08T01:13:13.063Z,0.00
2022-11-08T01:14:13.217Z,0.00
2022-11-08T01:15:13.422Z,0.00
2022-11-08T01:16:13.536Z,0.00
2022-11-08T01:17:13.716Z,0.00
2022-11-08T01:18:13.887Z,0.00
2022-11-08T01:19:14.039Z,0.00
2022-11-08T01:20:14.280Z,0.00
2022-11-08T01:21:14.383Z,0.00
2022-11-08T01:22:14.555Z,0.00
2022-11-08T01:23:14.719Z,0.00
2022-11-08T01:24:14.875Z,0.00
2022-11-08T01:25:15.035Z,0.00
2022-11-08T01:26:15.194Z,0.00
2022-11-08T01:27:15.407Z,0.00
2022-11-08T01:28:15.979Z,0.00
2022-11-08T01:29:15.734Z,0.00
2022-11-08T01:30:15.886Z,0.00
2022-11-08T01:31:16.083Z,0.00
2022-11-08T01:32:16.246Z,0.00
2022-11-08T01:33:16.429Z,0.00
2022-11-08T01:34:16.576Z,0.00
2022-11-08T01:35:16.784Z,0.00
2022-11-08T01:36:16.935Z,0.00
2022-11-08T01:37:17.143Z,0.00
2022-11-08T01:38:17.556Z,0.00
2022-11-08T01:39:17.475Z,0.00
2022-11-08T01:40:17.625Z,0.00
2022-11-08T01:41:17.826Z,0.00
2022-11-08T01:42:17.985Z,0.00
2022-11-08T01:43:18.155Z,0.00
2022-11-08T01:44:18.315Z,0.00
2022-11-08T01:45:18.485Z,0.00
2022-11-08T01:46:18.645Z,0.00
2022-11-08T01:47:18.822Z,0.00
2022-11-08T01:48:19.445Z,0.00
2022-11-08T01:49:19.195Z,0.00
2022-11-08T01:50:19.357Z,0.00
2022-11-08T01:51:19.528Z,0.00
2022-11-08T01:52:19.698Z,0.00
2022-11-08T01:53:19.854Z,0.00
2022-11-08T01:54:20.019Z,0.00
2022-11-08T01:55:20.194Z,0.00
2022-11-08T01:56:20.338Z,0.00
2022-11-08T01:57:20.504Z,0.00
2022-11-08T01:58:20.814Z,0.00
2022-11-08T01:59:20.866Z,0.00
2022-11-08T02:00:21.026Z,0.00
2022-11-08T02:01:21.271Z,0.00
2022-11-08T02:02:21.478Z,0.00
2022-11-08T02:03:21.533Z,0.00
2022-11-08T02:04:21.697Z,0.00
2022-11-08T02:05:21.845Z,0.00
2022-11-08T02:06:22.011Z,0.00
2022-11-08T02:07:22.185Z,0.00
2022-11-08T02:08:22.335Z,0.00
2022-11-08T02:09:22.535Z,0.00
2022-11-08T02:10:22.694Z,0.00
2022-11-08T02:11:22.856Z,0.00
2022-11-08T02:12:23.037Z,0.00
2022-11-08T02:13:23.192Z,0.00
2022-11-08T02:14:23.344Z,0.00
2022-11-08T02:15:23.543Z,0.00
2022-11-08T02:16:23.695Z,0.00
2022-11-08T02:17:23.865Z,0.00
2022-11-08T02:18:24.024Z,0.00
2022-11-08T02:19:24.215Z,0.00
2022-11-08T02:20:24.397Z,0.00
2022-11-08T02:21:24.565Z,0.00
2022-11-08T02:22:24.739Z,0.00
2022-11-08T02:23:24.902Z,0.00
2022-11-08T02:24:25.055Z,0.00
2022-11-08T02:25:25.224Z,0.00
2022-11-08T02:26:25.375Z,0.00
2022-11-08T02:27:25.555Z,0.00
2022-11-08T02:28:25.705Z,0.00
2022-11-08T02:29:25.906Z,0.00
2022-11-08T02:30:26.065Z,0.00
2022-11-08T02:31:26.225Z,0.00
2022-11-08T02:32:26.404Z,0.00
2022-11-08T02:33:26.564Z,0.00
2022-11-08T02:34:26.725Z,0.00
2022-11-08T02:35:26.887Z,0.00
2022-11-08T02:36:27.044Z,0.00
2022-11-08T02:37:27.224Z,0.00
2022-11-08T02:38:27.428Z,0.00
2022-11-08T02:39:27.600Z,0.00
2022-11-08T02:40:27.761Z,0.00
2022-11-08T02:41:27.913Z,0.00
2022-11-08T02:42:28.084Z,0.00
2022-11-08T02:43:28.244Z,0.00
2022-11-08T02:44:28.403Z,0.00
2022-11-08T02:45:28.576Z,0.00
2022-11-08T02:46:28.727Z,0.00
2022-11-08T02:47:28.934Z,0.00
2022-11-08T02:48:29.095Z,0.00
2022-11-08T02:49:29.273Z,0.00
2022-11-08T02:50:29.428Z,0.00
2022-11-08T02:51:29.586Z,0.00
2022-11-08T02:52:29.764Z,0.00
2022-11-08T02:53:29.927Z,0.00
2022-11-08T02:54:30.084Z,0.00
2022-11-08T02:55:30.245Z,0.00
2022-11-08T02:56:30.404Z,0.00
2022-11-08T02:57:30.584Z,0.00
2022-11-08T02:58:30.736Z,0.00
2022-11-08T02:59:30.937Z,0.00
2022-11-08T03:00:31.095Z,0.00
2022-11-08T03:01:31.410Z,0.00
2022-11-08T03:02:31.527Z,0.00
2022-11-08T03:03:31.616Z,0.00
2022-11-08T03:04:31.805Z,0.00
2022-11-08T03:05:31.967Z,0.00
2022-11-08T03:06:32.163Z,0.00
2022-11-08T03:07:32.345Z,0.00
2022-11-08T03:08:32.521Z,0.00
2022-11-08T03:09:32.673Z,0.00
2022-11-08T03:10:32.872Z,0.00
2022-11-08T03:11:33.023Z,0.00
2022-11-08T03:12:33.319Z,0.00
2022-11-08T03:13:33.376Z,0.00
2022-11-08T03:14:33.572Z,0.00
2022-11-08T03:15:33.758Z,0.00
2022-11-08T03:16:33.913Z,0.00
2022-11-08T03:17:34.096Z,0.00
2022-11-08T03:18:34.243Z,0.00
2022-11-08T03:19:34.403Z,0.00
2022-11-08T03:20:34.583Z,0.00
2022-11-08T03:21:34.732Z,0.00
2022-11-08T03:22:34.934Z,0.00
2022-11-08T03:23:35.043Z,0.00
2022-11-08T03:24:35.303Z,0.00
2022-11-08T03:25:35.416Z,0.00
2022-11-08T03:26:35.615Z,0.00
2022-11-08T03:27:35.783Z,0.00
2022-11-08T03:28:35.956Z,0.00
2022-11-08T03:29:36.103Z,0.00
2022-11-08T03:30:36.277Z,0.00
2022-11-08T03:31:36.423Z,0.00
2022-11-08T03:32:36.694Z,0.00
2022-11-08T03:33:36.794Z,0.00
2022-11-08T03:34:36.952Z,0.00
2022-11-08T03:35:37.113Z,0.00
2022-11-08T03:36:37.299Z,0.00
2022-11-08T03:37:37.463Z,0.00
2022-11-08T03:38:37.603Z,0.00
2022-11-08T03:39:37.773Z,0.00
2022-11-08T03:40:37.939Z,0.00
2022-11-08T03:41:38.094Z,0.00
2022-11-08T03:42:38.263Z,0.00
2022-11-08T03:43:38.412Z,0.00
2022-11-08T03:44:38.584Z,0.00
2022-11-08T03:45:38.733Z,0.00
2022-11-08T03:46:38.917Z,0.00
2022-11-08T03:47:39.081Z,0.00
2022-11-08T03:48:39.241Z,0.00
2022-11-08T03:49:39.393Z,0.00
2022-11-08T03:50:39.625Z,0.00
2022-11-08T03:51:39.762Z,0.00
2022-11-08T03:52:39.924Z,0.00
2022-11-08T03:53:40.083Z,0.00
2022-11-08T03:54:40.243Z,0.00
2022-11-08T03:55:40.403Z,0.00
2022-11-08T03:56:40.582Z,0.00
2022-11-08T03:57:40.768Z,0.00
2022-11-08T03:58:40.944Z,0.00
2022-11-08T03:59:41.101Z,0.00
2022-11-08T04:00:41.262Z,0.00
2022-11-08T04:01:41.531Z,0.00
2022-11-08T04:02:41.654Z,0.00
2022-11-08T04:03:41.783Z,0.00
2022-11-08T04:04:41.954Z,0.00
2022-11-08T04:05:42.108Z,0.00
2022-11-08T04:06:42.332Z,0.00
2022-11-08T04:07:42.462Z,0.00
2022-11-08T04:08:42.655Z,0.00
2022-11-08T04:09:42.803Z,0.00
2022-11-08T04:10:42.973Z,0.00
2022-11-08T04:11:43.135Z,0.00
2022-11-08T04:12:43.322Z,0.00
2022-11-08T04:13:43.465Z,0.00
2022-11-08T04:14:43.662Z,0.00
2022-11-08T04:15:43.845Z,0.00
2022-11-08T04:16:44.122Z,0.00
2022-11-08T04:17:44.182Z,0.00
2022-11-08T04:18:44.383Z,0.00
2022-11-08T04:19:44.571Z,0.00
2022-11-08T04:20:44.715Z,0.00
2022-11-08T04:21:44.885Z,0.00
2022-11-08T04:22:45.060Z,0.00
2022-11-08T04:23:45.214Z,0.00
2022-11-08T04:24:45.411Z,0.00
2022-11-08T04:25:45.581Z,0.00
2022-11-08T04:26:45.790Z,0.00
2022-11-08T04:27:45.912Z,0.00
2022-11-08T04:28:46.109Z,0.00
2022-11-08T04:29:46.261Z,0.00
2022-11-08T04:30:46.421Z,0.00
2022-11-08T04:31:46.593Z,0.00
2022-11-08T04:32:46.752Z,0.00
2022-11-08T04:33:46.935Z,0.00
2022-11-08T04:34:47.081Z,0.00
2022-11-08T04:35:47.231Z,0.00
2022-11-08T04:36:47.443Z,0.00
2022-11-08T04:37:47.608Z,0.00
2022-11-08T04:38:47.798Z,0.00
2022-11-08T04:39:47.983Z,0.00
2022-11-08T04:40:48.144Z,0.00
2022-11-08T04:41:48.315Z,0.00
2022-11-08T04:42:48.472Z,0.00
2022-11-08T04:43:48.632Z,0.00
2022-11-08T04:44:48.791Z,0.00
2022-11-08T04:45:48.953Z,0.00
2022-11-08T04:46:49.123Z,0.00
2022-11-08T04:47:49.281Z,0.00
2022-11-08T04:48:49.451Z,0.00
2022-11-08T04:49:49.611Z,0.00
2022-11-08T04:50:49.774Z,0.00
2022-11-08T04:51:49.941Z,0.00
2022-11-08T04:52:50.101Z,0.00
2022-11-08T04:53:50.266Z,0.00
2022-11-08T04:54:50.421Z,0.00
2022-11-08T04:55:50.581Z,0.00
2022-11-08T04:56:50.758Z,0.00
2022-11-08T04:57:50.939Z,0.00
2022-11-08T04:58:51.111Z,0.00
2022-11-08T04:59:51.295Z,0.00
2022-11-08T05:00:51.452Z,0.00
2022-11-08T05:01:51.740Z,0.00
2022-11-08T05:02:51.822Z,0.00
2022-11-08T05:03:51.963Z,0.00
2022-11-08T05:04:52.161Z,0.00
2022-11-08T05:05:52.355Z,0.00
2022-11-08T05:06:52.520Z,0.00
2022-11-08T05:07:52.670Z,0.00
2022-11-08T05:08:52.839Z,0.00
2022-11-08T05:09:53.001Z,0.00
2022-11-08T05:10:53.223Z,0.00
2022-11-08T05:11:53.341Z,0.00
2022-11-08T05:12:53.539Z,0.00
2022-11-08T05:13:53.691Z,0.00
2022-11-08T05:14:53.866Z,0.00
2022-11-08T05:15:54.031Z,0.00
2022-11-08T05:16:54.200Z,0.00
2022-11-08T05:17:54.351Z,0.00
2022-11-08T05:18:54.511Z,0.00
2022-11-08T05:19:54.671Z,0.00
2022-11-08T05:20:54.858Z,0.00
2022-11-08T05:21:55.011Z,0.00
2022-11-08T05:22:55.171Z,0.00
2022-11-08T05:23:55.331Z,0.00
2022-11-08T05:24:55.502Z,0.00
2022-11-08T05:25:55.660Z,0.00
2022-11-08T05:26:55.834Z,0.00
2022-11-08T05:27:55.991Z,0.00
2022-11-08T05:28:56.181Z,0.00
2022-11-08T05:29:56.340Z,0.00
2022-11-08T05:30:56.553Z,0.00
2022-11-08T05:31:56.675Z,0.00
2022-11-08T05:32:56.861Z,0.00
2022-11-08T05:33:57.020Z,0.00
2022-11-08T05:34:57.221Z,0.00
2022-11-08T05:36:00.010Z,0.00
2022-11-08T05:36:57.560Z,0.00
2022-11-08T05:37:57.720Z,0.00
2022-11-08T05:38:57.891Z,0.00
2022-11-08T05:39:58.050Z,0.00
2022-11-08T05:40:58.241Z,0.00
2022-11-08T05:41:58.371Z,0.00
2022-11-08T05:42:58.530Z,0.00
2022-11-08T05:43:58.689Z,0.00
2022-11-08T05:44:58.863Z,0.00
2022-11-08T05:45:59.028Z,0.00
2022-11-08T05:46:59.191Z,0.00
2022-11-08T05:47:59.352Z,0.00
2022-11-08T05:48:59.535Z,0.00
2022-11-08T05:49:59.691Z,0.00
2022-11-08T05:50:59.862Z,0.00
2022-11-08T05:52:00.023Z,0.00
2022-11-08T05:53:00.203Z,0.00
2022-11-08T05:54:00.379Z,0.00
2022-11-08T05:55:00.553Z,0.00
2022-11-08T05:56:00.753Z,0.00
2022-11-08T05:57:00.903Z,0.00
2022-11-08T05:58:01.080Z,0.00
2022-11-08T05:59:01.265Z,0.00
2022-11-08T06:00:01.441Z,0.00
2022-11-08T06:01:01.640Z,0.00
2022-11-08T06:02:01.836Z,0.00
2022-11-08T06:03:02.030Z,5.62
2022-11-08T06:04:02.109Z,5.62
2022-11-08T06:05:02.292Z,5.62
2022-11-08T06:06:02.512Z,5.62
2022-11-08T06:07:02.723Z,5.62
2022-11-08T06:08:02.842Z,5.62
2022-11-08T06:09:03.012Z,5.62
2022-11-08T06:10:03.180Z,5.62
2022-11-08T06:11:03.369Z,11.25
2022-11-08T06:12:03.562Z,11.25
2022-11-08T06:13:03.732Z,11.25
2022-11-08T06:14:03.877Z,11.25
2022-11-08T06:15:04.030Z,11.25
2022-11-08T06:16:04.189Z,11.25
2022-11-08T06:17:04.412Z,16.88
2022-11-08T06:18:04.529Z,16.88
2022-11-08T06:19:04.781Z,16.88
2022-11-08T06:20:04.870Z,16.88
2022-11-08T06:21:05.108Z,22.50
2022-11-08T06:22:05.240Z,22.50
2022-11-08T06:23:05.422Z,22.50
2022-11-08T06:24:05.610Z,22.50
2022-11-08T06:25:05.804Z,28.12
2022-11-08T06:26:05.961Z,28.12
2022-11-08T06:27:06.132Z,28.12
2022-11-08T06:28:06.271Z,28.12
2022-11-08T06:29:07.447Z,33.75
2022-11-08T06:30:06.620Z,33.75
2022-11-08T06:31:06.799Z,33.75
2022-11-08T06:32:06.939Z,33.75
2022-11-08T06:33:08.078Z,33.75
2022-11-08T06:34:07.342Z,39.38
2022-11-08T06:35:07.478Z,39.38
2022-11-08T06:36:07.679Z,39.38
2022-11-08T06:37:08.827Z,39.38
2022-11-08T06:38:09.533Z,39.38
2022-11-08T06:39:08.198Z,45.00
2022-11-08T06:40:08.389Z,45.00
2022-11-08T06:41:08.538Z,45.00
2022-11-08T06:42:08.678Z,45.00
2022-11-08T06:43:08.877Z,50.62
2022-11-08T06:44:09.054Z,50.62
2022-11-08T06:45:09.237Z,50.62
2022-11-08T06:46:09.471Z,50.62
2022-11-08T06:47:09.617Z,56.25
2022-11-08T06:48:09.769Z,56.25
2022-11-08T06:49:10.003Z,56.25
2022-11-08T06:50:10.165Z,61.88
2022-11-08T06:51:10.333Z,61.88
2022-11-08T06:52:10.481Z,61.88
2022-11-08T06:53:10.659Z,67.50
2022-11-08T06:54:14.236Z,67.50
2022-11-08T06:55:12.027Z,73.12
2022-11-08T06:56:11.227Z,73.12
2022-11-08T06:57:11.348Z,78.75
2022-11-08T06:58:11.533Z,78.75
2022-11-08T06:59:11.697Z,84.38
2022-11-08T07:00:11.876Z,90.00
2022-11-08T07:01:12.149Z,95.62
2022-11-08T07:02:12.288Z,95.62
2022-11-08T07:03:12.484Z,95.62
2022-11-08T07:04:12.635Z,101.25
2022-11-08T07:05:12.800Z,101.25
2022-11-08T07:06:12.968Z,101.25
2022-11-08T07:07:13.110Z,95.62
2022-11-08T07:08:13.309Z,95.62
2022-11-08T07:09:13.479Z,95.62
2022-11-08T07:10:13.644Z,101.25
2022-11-08T07:11:13.800Z,106.88
2022-11-08T07:12:13.939Z,112.50
2022-11-08T07:13:14.119Z,118.12
2022-11-08T07:14:14.287Z,118.12
2022-11-08T07:15:14.488Z,123.75
2022-11-08T07:16:14.709Z,123.75
2022-11-08T07:17:14.819Z,123.75
2022-11-08T07:18:15.080Z,129.38
2022-11-08T07:19:15.186Z,129.38
2022-11-08T07:20:15.388Z,135.00
2022-11-08T07:21:15.530Z,135.00
2022-11-08T07:22:15.750Z,140.62
2022-11-08T07:23:15.886Z,140.62
2022-11-08T07:24:16.068Z,146.25
2022-11-08T07:25:16.238Z,151.88
2022-11-08T07:26:16.399Z,157.50
2022-11-08T07:27:16.563Z,157.50
2022-11-08T07:28:16.752Z,157.50
2022-11-08T07:29:16.898Z,163.12
2022-11-08T07:30:17.107Z,163.12
2022-11-08T07:31:17.250Z,168.75
2022-11-08T07:32:17.397Z,174.38
2022-11-08T07:33:18.175Z,174.38
2022-11-08T07:34:17.776Z,174.38
2022-11-08T07:35:17.968Z,174.38
2022-11-08T07:36:18.162Z,174.38
2022-11-08T07:37:18.297Z,185.62
2022-11-08T07:38:18.490Z,185.62
2022-11-08T07:39:18.652Z,185.62
2022-11-08T07:40:18.883Z,185.62
2022-11-08T07:41:18.979Z,185.62
2022-11-08T07:42:19.167Z,191.25
2022-11-08T07:43:19.348Z,191.25
2022-11-08T07:44:19.540Z,196.88
2022-11-08T07:45:19.776Z,208.12
2022-11-08T07:46:19.885Z,213.75
2022-11-08T07:47:20.067Z,219.38
2022-11-08T07:48:20.256Z,219.38
2022-11-08T07:49:20.408Z,219.38
2022-11-08T07:50:20.628Z,230.62
2022-11-08T07:51:20.750Z,236.25
2022-11-08T07:52:20.937Z,253.12
2022-11-08T07:53:21.295Z,258.75
2022-11-08T07:54:21.316Z,264.38
2022-11-08T07:55:21.545Z,270.00
2022-11-08T07:56:21.646Z,292.50
2022-11-08T07:57:21.818Z,298.12
2022-11-08T07:58:22.035Z,286.88
2022-11-08T07:59:22.184Z,298.12
2022-11-08T08:00:22.329Z,309.38
2022-11-08T08:01:22.518Z,331.88
2022-11-08T08:02:22.744Z,388.12
2022-11-08T08:03:23.404Z,444.38
2022-11-08T08:04:23.052Z,450.00
2022-11-08T08:05:23.217Z,416.25
2022-11-08T08:06:23.401Z,331.88
2022-11-08T08:07:23.558Z,360.00
2022-11-08T08:08:23.745Z,410.62
2022-11-08T08:09:23.927Z,472.50
2022-11-08T08:10:24.117Z,489.38
2022-11-08T08:11:27.127Z,523.12
2022-11-08T08:12:25.459Z,562.50
2022-11-08T08:13:24.615Z,472.50
2022-11-08T08:14:24.797Z,455.62
2022-11-08T08:15:24.967Z,523.12
2022-11-08T08:16:25.128Z,573.75
2022-11-08T08:17:25.287Z,585.00
2022-11-08T08:18:25.488Z,669.38
2022-11-08T08:19:25.667Z,731.25
2022-11-08T08:20:25.809Z,731.25
2022-11-08T08:21:25.958Z,691.88
2022-11-08T08:22:26.138Z,720.00
2022-11-08T08:23:26.326Z,781.88
2022-11-08T08:24:26.541Z,798.75
2022-11-08T08:25:26.669Z,821.25
2022-11-08T08:26:26.862Z,826.88
2022-11-08T08:27:27.009Z,883.12
2022-11-08T08:28:27.189Z,888.75
2022-11-08T08:29:27.355Z,888.75
2022-11-08T08:30:27.531Z,894.38
2022-11-08T08:31:27.689Z,894.38
2022-11-08T08:32:31.429Z,916.88
2022-11-08T08:33:34.209Z,939.38
2022-11-08T08:34:29.239Z,928.12
2022-11-08T08:35:28.370Z,967.50
2022-11-08T08:36:28.541Z,905.62
2022-11-08T08:37:28.728Z,900.00
2022-11-08T08:38:28.890Z,1001.25
2022-11-08T08:39:29.071Z,1051.88
2022-11-08T08:40:29.242Z,1125.00
2022-11-08T08:41:29.436Z,1186.88
2022-11-08T08:42:29.726Z,1198.12
2022-11-08T08:43:29.762Z,1175.62
2022-11-08T08:44:29.943Z,1136.25
2022-11-08T08:45:30.114Z,1136.25
2022-11-08T08:46:30.282Z,1108.12
2022-11-08T08:47:30.451Z,1164.38
2022-11-08T08:48:30.632Z,1215.00
2022-11-08T08:49:30.812Z,1198.12
2022-11-08T08:50:31.012Z,1271.25
2022-11-08T08:51:31.169Z,1310.62
2022-11-08T08:52:31.354Z,1310.62
2022-11-08T08:53:31.492Z,1333.12
2022-11-08T08:54:31.702Z,1327.50
2022-11-08T08:55:31.854Z,1260.00
2022-11-08T08:56:32.043Z,1141.88
2022-11-08T08:57:32.194Z,1260.00
2022-11-08T08:58:32.531Z,1389.38
2022-11-08T09:02:33.074Z,1254.38
2022-11-08T09:03:33.234Z,1136.25
2022-11-08T09:04:33.426Z,1321.88
2022-11-08T09:05:33.572Z,1260.00
2022-11-08T09:06:33.780Z,1338.75
2022-11-08T09:07:33.924Z,1310.62
2022-11-08T09:08:34.065Z,1316.25
2022-11-08T09:09:34.277Z,1378.12
2022-11-08T09:10:34.436Z,1428.75
2022-11-08T09:11:34.637Z,1237.50
2022-11-08T09:12:34.812Z,1243.12
2022-11-08T09:13:34.944Z,1057.50
2022-11-08T09:14:35.137Z,1237.50
2022-11-08T09:15:35.326Z,1316.25
2022-11-08T09:16:35.475Z,1411.88
2022-11-08T09:17:35.647Z,1383.75
2022-11-08T09:18:35.867Z,1513.12
2022-11-08T09:19:36.035Z,1586.25
2022-11-08T09:20:36.207Z,1867.50
2022-11-08T09:21:36.445Z,1518.75
2022-11-08T09:22:36.565Z,1338.75
2022-11-08T09:23:36.756Z,1355.62
2022-11-08T09:24:36.951Z,1670.62
2022-11-08T09:25:37.087Z,1794.38
2022-11-08T09:26:37.275Z,1951.88
2022-11-08T09:27:37.448Z,1996.88
2022-11-08T09:28:37.627Z,2109.38
2022-11-08T09:29:37.824Z,2148.75
2022-11-08T09:30:37.977Z,1901.25
2022-11-08T09:31:38.179Z,1991.25
2022-11-08T09:33:39.509Z,1693.12
2022-11-08T09:34:38.697Z,1586.25
2022-11-08T09:35:38.837Z,1473.75
2022-11-08T09:36:39.019Z,1130.62
2022-11-08T09:37:39.229Z,815.62
2022-11-08T09:38:39.351Z,607.50
2022-11-08T09:39:39.603Z,461.25
2022-11-08T09:40:39.729Z,399.38
2022-11-08T09:41:39.909Z,376.88
2022-11-08T09:42:40.091Z,376.88
2022-11-08T09:43:40.268Z,376.88
2022-11-08T09:44:40.469Z,382.50
2022-11-08T09:45:40.619Z,376.88
2022-11-08T09:46:40.810Z,376.88
2022-11-08T09:47:40.989Z,376.88
2022-11-08T09:48:41.195Z,376.88
2022-11-08T09:49:41.372Z,376.88
2022-11-08T09:50:41.553Z,376.88
2022-11-08T09:51:41.689Z,376.88
2022-11-08T09:52:41.887Z,382.50
2022-11-08T09:53:42.040Z,382.50
2022-11-08T09:54:42.240Z,376.88
2022-11-08T09:55:42.479Z,388.12
2022-11-08T09:56:42.580Z,382.50
2022-11-08T09:57:42.780Z,388.12
2022-11-08T09:58:42.929Z,388.12
2022-11-08T09:59:43.140Z,382.50
2022-11-08T10:00:43.291Z,388.12
2022-11-08T10:01:43.448Z,393.75
2022-11-08T10:02:43.608Z,410.62
2022-11-08T10:03:43.818Z,405.00
2022-11-08T10:04:43.979Z,405.00
2022-11-08T10:05:44.112Z,405.00
2022-11-08T10:06:44.362Z,410.62
2022-11-08T10:07:44.480Z,405.00
2022-11-08T10:08:44.682Z,405.00
2022-11-08T10:09:44.852Z,393.75
2022-11-08T10:10:45.033Z,382.50
2022-11-08T10:11:45.223Z,376.88
2022-11-08T10:12:45.401Z,371.25
2022-11-08T10:13:45.624Z,371.25
2022-11-08T10:14:53.390Z,371.25
2022-11-08T10:15:46.965Z,376.88
2022-11-08T10:16:46.114Z,382.50
2022-11-08T10:17:46.291Z,376.88
2022-11-08T10:18:46.492Z,376.88
2022-11-08T10:19:46.673Z,376.88
2022-11-08T10:20:46.822Z,376.88
2022-11-08T10:21:46.961Z,382.50
2022-11-08T10:22:47.145Z,388.12
2022-11-08T10:23:47.355Z,388.12
2022-11-08T10:24:47.504Z,399.38
2022-11-08T10:25:47.652Z,399.38
2022-11-08T10:26:47.839Z,399.38
2022-11-08T10:27:47.993Z,399.38
2022-11-08T10:28:48.143Z,399.38
2022-11-08T10:29:48.302Z,393.75
2022-11-08T10:30:48.510Z,393.75
2022-11-08T10:31:48.623Z,393.75
2022-11-08T10:32:48.843Z,393.75
2022-11-08T10:33:48.982Z,393.75
2022-11-08T10:34:49.172Z,388.12
2022-11-08T10:35:49.343Z,388.12
2022-11-08T10:36:49.532Z,382.50
2022-11-08T10:37:49.703Z,376.88
2022-11-08T10:38:49.902Z,376.88
2022-11-08T10:39:50.074Z,371.25
2022-11-08T10:40:50.297Z,365.62
2022-11-08T10:41:50.414Z,354.38
2022-11-08T10:42:50.593Z,343.12
2022-11-08T10:43:50.794Z,331.88
2022-11-08T10:44:50.977Z,320.62
2022-11-08T10:45:51.105Z,309.38
2022-11-08T10:46:51.282Z,303.75
2022-11-08T10:47:51.475Z,298.12
2022-11-08T10:48:51.663Z,292.50
2022-11-08T10:49:51.804Z,292.50
2022-11-08T10:50:52.004Z,292.50
2022-11-08T10:51:52.166Z,292.50
2022-11-08T10:52:52.360Z,286.88
2022-11-08T10:53:52.574Z,286.88
2022-11-08T10:54:52.727Z,286.88
2022-11-08T10:55:52.925Z,281.25
2022-11-08T10:56:53.094Z,270.00
2022-11-08T10:57:53.274Z,264.38
2022-11-08T10:58:53.485Z,258.75
2022-11-08T10:59:53.625Z,258.75
2022-11-08T11:00:53.806Z,264.38
2022-11-08T11:01:54.027Z,264.38
2022-11-08T11:02:54.155Z,247.50
2022-11-08T11:03:54.355Z,258.75
2022-11-08T11:04:54.525Z,247.50
2022-11-08T11:05:54.675Z,247.50
2022-11-08T11:06:54.903Z,241.88
2022-11-08T11:08:00.611Z,241.88
2022-11-08T11:08:56.247Z,236.25
2022-11-08T11:09:55.396Z,236.25
2022-11-08T11:10:55.587Z,236.25
2022-11-08T11:11:55.804Z,236.25
2022-11-08T11:12:55.946Z,236.25
2022-11-08T11:13:56.141Z,236.25
2022-11-08T11:14:56.289Z,230.62
2022-11-08T11:15:56.468Z,230.62
2022-11-08T11:16:56.683Z,230.62
2022-11-08T11:17:56.805Z,230.62
2022-11-08T11:18:56.997Z,230.62
2022-11-08T11:19:57.155Z,230.62
2022-11-08T11:20:57.342Z,225.00
2022-11-08T11:21:57.506Z,225.00
2022-11-08T11:22:57.696Z,225.00
2022-11-08T11:23:57.887Z,225.00
2022-11-08T11:24:58.086Z,219.38
2022-11-08T11:25:58.248Z,219.38
2022-11-08T11:26:58.417Z,219.38
2022-11-08T11:27:58.616Z,219.38
2022-11-08T11:28:58.807Z,225.00
2022-11-08T11:29:58.947Z,219.38
2022-11-08T11:30:59.146Z,219.38
2022-11-08T11:31:59.287Z,213.75
2022-11-08T11:32:59.479Z,213.75
2022-11-08T11:33:59.659Z,213.75
2022-11-08T11:34:59.808Z,213.75
2022-11-08T11:35:59.988Z,219.38
2022-11-08T11:37:00.167Z,219.38
2022-11-08T11:38:00.348Z,219.38
2022-11-08T11:39:00.561Z,230.62
2022-11-08T11:40:00.698Z,230.62
2022-11-08T11:41:00.963Z,230.62
2022-11-08T11:42:17.854Z,236.25
2022-11-08T11:43:02.237Z,247.50
2022-11-08T11:44:01.437Z,258.75
2022-11-08T11:45:01.580Z,270.00
2022-11-08T11:46:01.758Z,281.25
2022-11-08T11:47:01.967Z,286.88
2022-11-08T11:48:02.108Z,292.50
2022-11-08T11:49:02.320Z,298.12
2022-11-08T11:50:02.475Z,298.12
2022-11-08T11:51:02.732Z,298.12
2022-11-08T11:52:02.812Z,292.50
2022-11-08T11:53:02.969Z,286.88
2022-11-08T11:54:03.170Z,281.25
2022-11-08T11:55:03.338Z,275.62
2022-11-08T11:56:03.562Z,275.62
2022-11-08T11:57:03.719Z,275.62
2022-11-08T11:58:03.880Z,275.62
2022-11-08T11:59:04.104Z,270.00
2022-11-08T12:00:04.217Z,264.38
2022-11-08T12:01:04.368Z,264.38
2022-11-08T12:02:04.580Z,258.75
2022-11-08T12:03:04.729Z,253.12
2022-11-08T12:04:04.945Z,247.50
2022-11-08T12:05:05.082Z,241.88
2022-11-08T12:06:05.269Z,241.88
2022-11-08T12:07:05.925Z,241.88
2022-11-08T12:08:05.638Z,247.50
2022-11-08T12:09:05.839Z,247.50
2022-11-08T12:10:05.988Z,247.50
2022-11-08T12:11:06.172Z,247.50
2022-11-08T12:12:06.348Z,247.50
2022-11-08T12:13:06.541Z,253.12
2022-11-08T12:14:06.699Z,264.38
2022-11-08T12:15:06.840Z,270.00
2022-11-08T12:16:07.052Z,275.62
2022-11-08T12:17:07.183Z,281.25
2022-11-08T12:18:07.362Z,286.88
2022-11-08T12:19:07.510Z,286.88
2022-11-08T12:20:07.700Z,286.88
2022-11-08T12:21:07.901Z,286.88
2022-11-08T12:22:08.040Z,281.25
2022-11-08T12:23:08.251Z,281.25
2022-11-08T12:24:08.398Z,281.25
2022-11-08T12:25:08.570Z,275.62
2022-11-08T12:26:08.751Z,275.62
2022-11-08T12:27:08.931Z,275.62
2022-11-08T12:28:09.128Z,270.00
2022-11-08T12:29:09.280Z,270.00
2022-11-08T12:30:09.430Z,264.38
2022-11-08T12:31:09.632Z,258.75
2022-11-08T12:32:09.800Z,258.75
2022-11-08T12:33:10.013Z,258.75
2022-11-08T12:34:10.152Z,253.12
2022-11-08T12:35:10.332Z,236.25
2022-11-08T12:36:10.522Z,241.88
2022-11-08T12:37:10.691Z,247.50
2022-11-08T12:38:10.862Z,253.12
2022-11-08T12:39:11.001Z,258.75
2022-11-08T12:40:11.240Z,258.75
2022-11-08T12:41:11.352Z,258.75
2022-11-08T12:42:11.534Z,253.12
2022-11-08T12:43:11.724Z,247.50
2022-11-08T12:44:11.913Z,241.88
2022-11-08T12:45:12.096Z,236.25
2022-11-08T12:46:12.283Z,230.62
2022-11-08T12:47:12.462Z,225.00
2022-11-08T12:48:12.662Z,219.38
2022-11-08T12:49:12.843Z,213.75
2022-11-08T12:50:13.047Z,208.12
2022-11-08T12:51:13.184Z,208.12
2022-11-08T12:52:13.363Z,202.50
2022-11-08T12:53:13.552Z,191.25
2022-11-08T12:54:13.692Z,191.25
2022-11-08T12:55:13.873Z,180.00
2022-11-08T12:56:14.055Z,168.75
2022-11-08T12:57:14.212Z,163.12